KSBD/SBD METAR and TAF weather

Enter ICAO airport designator
Station Type Date Time Source
KSBD METAR 2021/06/22 22:17 UTC NOAA

KSBD 222217Z 26009G15KT 6SM HZ BKN150 34/05 A2991


Station Type Date Time Source
KSBD Decoded METAR 2021/06/22 22:17 UTC NOAA

Norton Air Force Base / San Bern, CA, United States (KSBD) 34-06N 117-14W
Jun 22, 2021 - 06:17 PM EDT / 2021.06.22 2217 UTC
Wind: from the W (260 degrees) at 10 MPH (9 KT) gusting to 17 MPH (15 KT):0
Visibility: 6 mile(s):0
Sky conditions: mostly cloudy
Weather: haze
Temperature: 93 F (34 C)
Dew Point: 41 F (5 C)
Relative Humidity: 16%
Pressure (altimeter): 29.91 in. Hg (1012 hPa)
ob: KSBD 222217Z 26009G15KT 6SM HZ BKN150 34/05 A2991
cycle: 22

Station Type Date Time Source
KSBD TAF 2021/06/22 18:22 UTC NOAA

TAF KSBD 221720Z 2218/2318 24006KT P6SM SCT150
FM222200 26010G18KT P6SM BKN150
FM230400 25006KT P6SM BKN120
FM230800 VRB04KT P6SM BKN100

Example: see airport list